Elkhart, Kansas
Current Conditions -  °F | °C
As of 3:53 AM on Friday 31 Oct 2014 (Local Time) from KGUY Reporting Station
Clear Clear  
Wind Chill: 36°   Ceiling: Unl
Heat Index: 41°   Visibility: 10mi
Dew Point: 30°   Wind: 8mph
Humidity: 65%   Direction: 10°N
Pressure: 30.42"   Gusts: NA
Location:  37.01°N, 101.89°W
Report Text: KGUY 310853Z AUTO 01007KT 10SM CLR 05/M01 A3042 RMK AO2 SLP279 T00501011 51016
Loading
Personal Weather Stations






























Interactive Weather Map
Tropical Storm Tracking
New forecast layout! Learn more

10-Day Weather Forecast

Advertisements
Track Severe Weather on mobile